createdAt,value
2019-02-24T00:01:08.509Z,3.77
2019-02-24T00:03:37.017Z,2.90
2019-02-24T00:06:05.505Z,3.53
2019-02-24T00:08:33.959Z,3.17
2019-02-24T00:11:02.381Z,2.90
2019-02-24T00:13:30.854Z,1.60
2019-02-24T00:15:59.320Z,2.40
2019-02-24T00:18:27.800Z,2.60
2019-02-24T00:20:56.258Z,4.20
2019-02-24T00:23:24.738Z,2.83
2019-02-24T00:25:53.177Z,3.87
2019-02-24T00:28:21.665Z,3.50
2019-02-24T00:30:50.139Z,2.63
2019-02-24T00:33:18.613Z,1.90
2019-02-24T00:35:47.093Z,4.83
2019-02-24T00:38:15.574Z,2.60
2019-02-24T00:40:44.038Z,2.20
2019-02-24T00:43:12.523Z,2.40
2019-02-24T00:45:40.992Z,1.97
2019-02-24T00:48:09.464Z,3.87
2019-02-24T00:50:37.930Z,2.80
2019-02-24T00:53:06.456Z,2.77
2019-02-24T00:55:34.976Z,2.30
2019-02-24T00:58:03.403Z,2.30
2019-02-24T01:00:31.804Z,2.70
2019-02-24T01:03:00.198Z,2.10
2019-02-24T01:05:28.594Z,2.40
2019-02-24T01:07:57.017Z,3.27
2019-02-24T01:10:26.675Z,4.63
2019-02-24T01:12:55.099Z,2.87
2019-02-24T01:15:23.498Z,2.00
2019-02-24T01:17:51.896Z,3.27
2019-02-24T01:20:20.306Z,2.60
2019-02-24T01:22:48.715Z,3.40
2019-02-24T01:25:17.114Z,4.23
2019-02-24T01:27:45.535Z,2.73
2019-02-24T01:30:13.935Z,2.20
2019-02-24T01:32:42.345Z,2.33
2019-02-24T01:35:10.739Z,2.40
2019-02-24T01:37:39.188Z,2.60
2019-02-24T01:40:08.557Z,2.00
2019-02-24T01:42:36.963Z,2.70
2019-02-24T01:45:07.085Z,2.07
2019-02-24T01:47:35.489Z,1.70
2019-02-24T01:50:06.016Z,3.73
2019-02-24T01:52:34.428Z,2.63
2019-02-24T01:55:02.823Z,1.83
2019-02-24T01:57:31.241Z,5.93
2019-02-24T01:59:59.631Z,2.10
2019-02-24T02:02:28.043Z,2.43
2019-02-24T02:04:56.449Z,2.80
2019-02-24T02:07:24.859Z,2.50
2019-02-24T02:09:53.260Z,3.37
2019-02-24T02:12:21.676Z,1.87
2019-02-24T02:14:50.061Z,3.47
2019-02-24T02:17:18.485Z,2.53
2019-02-24T02:19:46.869Z,1.93
2019-02-24T02:22:15.262Z,2.20
2019-02-24T02:24:43.671Z,1.80
2019-02-24T02:27:12.080Z,1.77
2019-02-24T02:29:40.480Z,2.40
2019-02-24T02:32:08.867Z,2.77
2019-02-24T02:34:37.278Z,3.73
2019-02-24T02:37:05.669Z,2.87
2019-02-24T02:39:34.079Z,2.03
2019-02-24T02:42:02.485Z,2.87
2019-02-24T02:44:31.725Z,2.27
2019-02-24T02:47:00.127Z,1.67
2019-02-24T02:49:28.521Z,2.50
2019-02-24T02:51:56.927Z,1.90
2019-02-24T02:54:25.335Z,4.60
2019-02-24T02:56:53.731Z,2.00
2019-02-24T02:59:22.149Z,2.00
2019-02-24T03:01:50.562Z,3.50
2019-02-24T03:04:18.976Z,2.80
2019-02-24T03:06:49.025Z,1.87
2019-02-24T03:09:17.417Z,2.93
2019-02-24T03:11:45.815Z,1.87
2019-02-24T03:14:14.210Z,1.93
2019-02-24T03:16:42.607Z,2.57
2019-02-24T03:19:11.021Z,3.00
2019-02-24T03:21:39.414Z,3.77
2019-02-24T03:24:07.828Z,2.90
2019-02-24T03:26:36.236Z,2.00
2019-02-24T03:29:04.696Z,3.60
2019-02-24T03:31:33.165Z,2.60
2019-02-24T03:34:01.598Z,2.20
2019-02-24T03:36:29.975Z,2.50
2019-02-24T03:38:58.392Z,3.30
2019-02-24T03:41:26.795Z,3.13
2019-02-24T03:43:55.228Z,3.57
2019-02-24T03:46:23.604Z,3.20
2019-02-24T03:48:52.028Z,2.63
2019-02-24T03:51:20.420Z,1.90
2019-02-24T03:53:48.821Z,2.20
2019-02-24T03:56:17.219Z,2.70
2019-02-24T03:58:45.719Z,2.63
2019-02-24T04:01:14.121Z,4.97
2019-02-24T04:03:42.596Z,4.40
2019-02-24T04:06:10.990Z,2.87
2019-02-24T04:08:39.369Z,4.10
2019-02-24T04:11:07.813Z,2.70
2019-02-24T04:13:36.179Z,7.17
2019-02-24T04:16:04.581Z,5.73
2019-02-24T04:18:32.984Z,6.67
2019-02-24T04:21:01.396Z,4.27
2019-02-24T04:23:29.794Z,4.80
2019-02-24T04:25:58.185Z,6.03
2019-02-24T04:28:26.593Z,4.00
2019-02-24T04:30:54.989Z,5.57
2019-02-24T04:33:23.400Z,6.57
2019-02-24T04:35:51.826Z,5.30
2019-02-24T04:38:20.230Z,3.23
2019-02-24T04:40:48.656Z,5.07
2019-02-24T04:43:17.041Z,5.27
2019-02-24T04:45:45.437Z,2.73
2019-02-24T04:48:13.823Z,6.20
2019-02-24T04:50:42.250Z,4.13
2019-02-24T04:53:10.639Z,2.93
2019-02-24T04:55:39.060Z,2.90
2019-02-24T04:58:07.465Z,3.30
2019-02-24T05:00:35.876Z,4.00
2019-02-24T05:03:04.273Z,2.80
2019-02-24T05:05:32.687Z,4.13
2019-02-24T05:08:01.082Z,3.33
2019-02-24T05:10:29.501Z,6.43
2019-02-24T05:12:57.907Z,3.97
2019-02-24T05:15:26.318Z,4.30
2019-02-24T05:17:54.715Z,2.40
2019-02-24T05:20:23.126Z,5.40
2019-02-24T05:22:51.537Z,3.63
2019-02-24T05:25:19.962Z,5.08
2019-02-24T05:27:48.364Z,4.93
2019-02-24T05:30:16.762Z,4.50
2019-02-24T05:32:45.153Z,4.90
2019-02-24T05:35:13.604Z,5.63
2019-02-24T05:37:41.975Z,3.37
2019-02-24T05:40:10.369Z,3.47
2019-02-24T05:42:38.789Z,10.70
2019-02-24T05:45:07.255Z,4.60
2019-02-24T05:47:35.666Z,3.10
2019-02-24T05:50:04.612Z,5.13
2019-02-24T05:52:33.016Z,3.85
2019-02-24T05:55:01.436Z,5.00
2019-02-24T05:57:29.845Z,3.80
2019-02-24T05:59:58.262Z,5.40
2019-02-24T06:02:27.602Z,3.97
2019-02-24T06:04:56.023Z,4.17
2019-02-24T06:07:24.434Z,5.70
2019-02-24T06:09:52.832Z,3.43
2019-02-24T06:12:21.214Z,3.10
2019-02-24T06:14:49.647Z,3.13
2019-02-24T06:17:18.049Z,3.80
2019-02-24T06:19:46.459Z,6.50
2019-02-24T06:22:14.856Z,3.27
2019-02-24T06:24:43.264Z,8.00
2019-02-24T06:27:11.675Z,3.30
2019-02-24T06:29:40.093Z,4.63
2019-02-24T06:32:08.487Z,3.43
2019-02-24T06:34:36.896Z,3.83
2019-02-24T06:37:05.297Z,4.60
2019-02-24T06:39:33.716Z,4.37
2019-02-24T06:42:02.112Z,6.90
2019-02-24T06:44:30.524Z,7.00
2019-02-24T06:46:58.996Z,6.10
2019-02-24T06:49:27.412Z,5.63
2019-02-24T06:51:55.873Z,5.00
2019-02-24T06:54:24.279Z,5.30
2019-02-24T06:56:52.701Z,9.13
2019-02-24T06:59:21.096Z,14.73
2019-02-24T07:01:49.567Z,18.30
2019-02-24T07:04:18.043Z,14.27
2019-02-24T07:06:46.486Z,8.97
2019-02-24T07:09:15.055Z,11.40
2019-02-24T07:11:43.457Z,24.90
2019-02-24T07:14:11.847Z,16.00
2019-02-24T07:16:40.256Z,20.57
2019-02-24T07:19:08.730Z,10.90
2019-02-24T07:21:37.223Z,8.60
2019-02-24T07:24:05.770Z,6.63
2019-02-24T07:26:34.209Z,7.17
2019-02-24T07:29:02.740Z,8.00
2019-02-24T07:31:31.223Z,7.80
2019-02-24T07:33:59.735Z,8.00
2019-02-24T07:36:28.253Z,12.47
2019-02-24T07:38:56.976Z,15.13
2019-02-24T07:41:25.457Z,9.57
2019-02-24T07:43:53.946Z,9.43
2019-02-24T07:46:22.423Z,5.20
2019-02-24T07:48:50.928Z,7.40
2019-02-24T07:51:19.380Z,6.93
2019-02-24T07:53:47.877Z,4.67
2019-02-24T07:56:16.347Z,4.50
2019-02-24T07:58:44.789Z,5.80
2019-02-24T08:01:13.192Z,4.40
2019-02-24T08:03:41.663Z,5.67
2019-02-24T08:06:10.207Z,6.37
2019-02-24T08:08:38.658Z,7.07
2019-02-24T08:11:07.101Z,5.87
2019-02-24T08:13:35.651Z,13.20
2019-02-24T08:16:04.218Z,5.50
2019-02-24T08:18:32.678Z,4.97
2019-02-24T08:21:01.111Z,5.13
2019-02-24T08:23:29.728Z,5.60
2019-02-24T08:25:58.208Z,4.27
2019-02-24T08:28:26.686Z,5.20
2019-02-24T08:30:55.130Z,4.43
2019-02-24T08:33:23.591Z,3.50
2019-02-24T08:35:53.032Z,6.30
2019-02-24T08:38:24.455Z,5.23
2019-02-24T08:40:54.985Z,7.40
2019-02-24T08:43:23.122Z,5.20
2019-02-24T08:45:51.590Z,3.87
2019-02-24T08:48:20.011Z,5.43
2019-02-24T08:50:48.413Z,7.63
2019-02-24T08:53:16.812Z,5.83
2019-02-24T08:55:45.216Z,5.53
2019-02-24T08:58:13.633Z,4.80
2019-02-24T09:00:50.560Z,6.00
2019-02-24T09:03:12.217Z,5.47
2019-02-24T09:05:40.607Z,6.10
2019-02-24T09:08:09.025Z,7.00
2019-02-24T09:10:37.424Z,5.93
2019-02-24T09:13:05.835Z,3.50
2019-02-24T09:15:34.240Z,5.50
2019-02-24T09:18:02.663Z,5.10
2019-02-24T09:20:31.137Z,5.17
2019-02-24T09:22:59.546Z,4.57
2019-02-24T09:25:27.939Z,4.30
2019-02-24T09:27:56.334Z,6.47
2019-02-24T09:30:24.740Z,4.87
2019-02-24T09:32:53.128Z,4.63
2019-02-24T09:35:21.529Z,5.13
2019-02-24T09:37:49.916Z,6.53
2019-02-24T09:40:18.333Z,4.80
2019-02-24T09:42:46.722Z,5.53
2019-02-24T09:45:15.142Z,5.90
2019-02-24T09:47:46.677Z,7.33
2019-02-24T09:50:13.799Z,5.07
2019-02-24T09:52:42.195Z,5.17
2019-02-24T09:55:10.607Z,4.90
2019-02-24T09:57:38.987Z,5.67
2019-02-24T10:00:13.131Z,6.10
2019-02-24T10:02:41.523Z,4.93
2019-02-24T10:05:09.914Z,5.27
2019-02-24T10:07:38.322Z,3.90
2019-02-24T10:10:11.875Z,4.10
2019-02-24T10:12:40.287Z,7.47
2019-02-24T10:15:13.537Z,5.87
2019-02-24T10:17:41.947Z,5.33
2019-02-24T10:20:11.487Z,7.90
2019-02-24T10:22:39.895Z,8.20
2019-02-24T10:25:09.243Z,9.70
2019-02-24T10:27:37.649Z,5.70
2019-02-24T10:30:11.497Z,4.63
2019-02-24T10:32:39.918Z,6.27
2019-02-24T10:35:08.458Z,4.43
2019-02-24T10:37:36.856Z,4.50
2019-02-24T10:40:16.718Z,4.50
2019-02-24T10:42:45.192Z,5.20
2019-02-24T10:45:18.617Z,4.83
2019-02-24T10:47:47.025Z,4.43
2019-02-24T10:50:17.327Z,5.57
2019-02-24T10:52:45.733Z,5.97
2019-02-24T10:55:14.143Z,5.93
2019-02-24T10:57:42.541Z,11.73
2019-02-24T11:00:17.178Z,6.10
2019-02-24T11:02:45.592Z,4.93
2019-02-24T11:05:15.136Z,28.93
2019-02-24T11:07:43.614Z,4.43
2019-02-24T11:10:12.168Z,5.50
2019-02-24T11:12:40.578Z,6.70
2019-02-24T11:15:10.932Z,9.40
2019-02-24T11:17:39.346Z,5.07
2019-02-24T11:20:16.863Z,5.53
2019-02-24T11:22:45.254Z,6.17
2019-02-24T11:25:13.748Z,3.80
2019-02-24T11:27:42.143Z,4.73
2019-02-24T11:30:14.665Z,6.77
2019-02-24T11:32:43.076Z,4.77
2019-02-24T11:35:12.413Z,4.70
2019-02-24T11:37:41.825Z,3.57
2019-02-24T11:40:11.967Z,3.20
2019-02-24T11:42:40.361Z,5.53
2019-02-24T11:45:09.609Z,6.20
2019-02-24T11:47:38.060Z,5.37
2019-02-24T11:50:09.020Z,3.50
2019-02-24T11:52:37.419Z,3.53
2019-02-24T11:55:07.561Z,2.70
2019-02-24T11:57:35.949Z,5.07
2019-02-24T12:00:06.471Z,2.80
2019-02-24T12:02:34.920Z,4.43
2019-02-24T12:05:03.824Z,3.03
2019-02-24T12:07:32.222Z,3.57
2019-02-24T12:10:00.616Z,5.43
2019-02-24T12:12:29.036Z,3.23
2019-02-24T12:14:57.436Z,3.93
2019-02-24T12:17:25.831Z,2.70
2019-02-24T12:19:54.239Z,2.60
2019-02-24T12:22:22.642Z,6.13
2019-02-24T12:24:51.044Z,4.50
2019-02-24T12:27:19.447Z,2.93
2019-02-24T12:29:47.849Z,2.67
2019-02-24T12:32:16.251Z,3.67
2019-02-24T12:34:44.661Z,3.23
2019-02-24T12:37:13.060Z,1.83
2019-02-24T12:39:41.471Z,2.40
2019-02-24T12:42:09.861Z,2.10
2019-02-24T12:44:38.281Z,1.40
2019-02-24T12:47:06.674Z,1.67
2019-02-24T12:49:35.074Z,1.97
2019-02-24T12:52:03.499Z,1.40
2019-02-24T12:54:31.954Z,1.27
2019-02-24T12:57:00.348Z,1.67
2019-02-24T12:59:28.801Z,2.90
2019-02-24T13:02:05.273Z,2.80
2019-02-24T13:04:28.836Z,1.90
2019-02-24T13:06:57.728Z,2.17
2019-02-24T13:09:26.196Z,1.77
2019-02-24T13:11:54.594Z,1.90
2019-02-24T13:14:23.068Z,2.20
2019-02-24T13:16:51.469Z,1.90
2019-02-24T13:19:19.873Z,2.47
2019-02-24T13:21:48.280Z,2.63
2019-02-24T13:24:16.915Z,3.40
2019-02-24T13:26:45.321Z,2.00
2019-02-24T13:29:13.727Z,1.73
2019-02-24T13:31:42.126Z,1.87
2019-02-24T13:34:10.523Z,2.53
2019-02-24T13:36:38.925Z,2.90
2019-02-24T13:39:07.467Z,2.40
2019-02-24T13:41:35.869Z,2.90
2019-02-24T13:44:04.268Z,3.73
2019-02-24T13:46:32.689Z,1.83
2019-02-24T13:49:01.079Z,2.80
2019-02-24T13:51:29.494Z,2.70
2019-02-24T13:53:57.875Z,3.00
2019-02-24T13:56:26.287Z,3.37
2019-02-24T13:58:54.678Z,3.60
2019-02-24T14:01:23.079Z,2.90
2019-02-24T14:03:51.465Z,2.33
2019-02-24T14:06:20.460Z,4.00
2019-02-24T14:08:48.965Z,4.40
2019-02-24T14:11:17.371Z,3.00
2019-02-24T14:13:45.762Z,5.43
2019-02-24T14:16:14.177Z,2.60
2019-02-24T14:18:42.561Z,2.33
2019-02-24T14:21:10.980Z,2.40
2019-02-24T14:23:39.394Z,3.13
2019-02-24T14:26:07.859Z,1.90
2019-02-24T14:28:36.251Z,2.47
2019-02-24T14:31:04.676Z,2.43
2019-02-24T14:33:33.067Z,2.27
2019-02-24T14:36:03.179Z,6.83
2019-02-24T14:38:31.679Z,2.53
2019-02-24T14:41:00.099Z,2.23
2019-02-24T14:43:28.500Z,2.30
2019-02-24T14:45:56.923Z,2.00
2019-02-24T14:48:25.310Z,3.30
2019-02-24T14:50:53.725Z,3.53
2019-02-24T14:53:22.130Z,4.50
2019-02-24T14:55:50.544Z,2.30
2019-02-24T14:58:18.941Z,2.10
2019-02-24T15:00:47.365Z,2.50
2019-02-24T15:03:15.756Z,1.87
2019-02-24T15:05:44.167Z,2.40
2019-02-24T15:08:12.567Z,3.33
2019-02-24T15:10:40.983Z,3.87
2019-02-24T15:13:09.385Z,2.23
2019-02-24T15:15:37.795Z,5.30
2019-02-24T15:18:06.208Z,2.20
2019-02-24T15:20:34.603Z,1.70
2019-02-24T15:23:03.015Z,2.20
2019-02-24T15:25:31.412Z,3.33
2019-02-24T15:27:59.835Z,2.40
2019-02-24T15:30:34.364Z,3.20
2019-02-24T15:33:02.785Z,2.57
2019-02-24T15:35:31.351Z,2.07
2019-02-24T15:37:59.835Z,2.00
2019-02-24T15:40:28.223Z,1.70
2019-02-24T15:42:56.636Z,3.03
2019-02-24T15:45:25.108Z,2.30
2019-02-24T15:47:53.505Z,2.03
2019-02-24T15:50:21.914Z,2.43
2019-02-24T15:52:50.323Z,6.30
2019-02-24T15:55:18.991Z,2.30
2019-02-24T15:57:47.398Z,3.33
2019-02-24T16:00:23.995Z,3.30
2019-02-24T16:03:00.696Z,2.13
2019-02-24T16:05:22.527Z,2.27
2019-02-24T16:07:51.024Z,2.13
2019-02-24T16:10:20.749Z,2.30
2019-02-24T16:12:49.215Z,2.33
2019-02-24T16:15:23.629Z,2.70
2019-02-24T16:17:52.026Z,5.43
2019-02-24T16:20:26.274Z,2.80
2019-02-24T16:22:54.662Z,3.57
2019-02-24T16:25:23.066Z,2.00
2019-02-24T16:27:51.469Z,2.10
2019-02-24T16:30:19.906Z,2.27
2019-02-24T16:32:48.351Z,3.43
2019-02-24T16:35:18.002Z,2.00
2019-02-24T16:37:46.409Z,2.03
2019-02-24T16:40:16.971Z,1.93
2019-02-24T16:42:45.354Z,2.77
2019-02-24T16:45:15.665Z,5.10
2019-02-24T16:47:44.048Z,2.53
2019-02-24T16:50:15.522Z,3.07
2019-02-24T16:52:43.982Z,2.87
2019-02-24T16:55:14.336Z,4.90
2019-02-24T16:57:42.733Z,6.27
2019-02-24T17:00:18.554Z,5.60
2019-02-24T17:02:47.041Z,10.13
2019-02-24T17:05:15.518Z,6.10
2019-02-24T17:07:43.901Z,3.90
2019-02-24T17:10:18.633Z,5.20
2019-02-24T17:12:47.031Z,11.23
2019-02-24T17:15:15.445Z,16.17
2019-02-24T17:17:43.846Z,32.10
2019-02-24T17:20:17.611Z,13.20
2019-02-24T17:22:46.089Z,11.10
2019-02-24T17:25:14.485Z,6.77
2019-02-24T17:27:42.869Z,8.87
2019-02-24T17:30:15.585Z,13.73
2019-02-24T17:32:43.974Z,27.97
2019-02-24T17:35:13.435Z,22.20
2019-02-24T17:37:41.825Z,32.50
2019-02-24T17:40:13.050Z,19.10
2019-02-24T17:42:41.451Z,18.13
2019-02-24T17:45:11.815Z,21.33
2019-02-24T17:47:40.367Z,16.23
2019-02-24T17:50:11.618Z,19.03
2019-02-24T17:52:40.988Z,30.90
2019-02-24T17:55:14.001Z,12.40
2019-02-24T17:57:42.413Z,57.17
2019-02-24T18:00:20.177Z,28.30
2019-02-24T18:02:48.580Z,16.43
2019-02-24T18:05:17.061Z,9.50
2019-02-24T18:07:45.455Z,11.07
2019-02-24T18:10:13.859Z,13.60
2019-02-24T18:12:42.257Z,46.93
2019-02-24T18:15:12.198Z,28.37
2019-02-24T18:17:40.591Z,87.10
2019-02-24T18:20:14.928Z,165.83
2019-02-24T18:22:43.333Z,40.80
2019-02-24T18:25:12.697Z,15.63
2019-02-24T18:27:41.091Z,18.83
2019-02-24T18:30:21.119Z,15.23
2019-02-24T18:32:49.507Z,8.33
2019-02-24T18:35:17.910Z,7.50
2019-02-24T18:37:46.301Z,7.90
2019-02-24T18:40:15.646Z,6.80
2019-02-24T18:42:44.105Z,8.40
2019-02-24T18:45:14.113Z,5.90
2019-02-24T18:47:42.508Z,8.70
2019-02-24T18:50:13.237Z,18.27
2019-02-24T18:52:41.703Z,15.30
2019-02-24T18:55:11.061Z,15.13
2019-02-24T18:57:39.460Z,12.77
2019-02-24T19:00:24.361Z,13.30
2019-02-24T19:02:54.803Z,6.73
2019-02-24T19:05:22.925Z,8.60
2019-02-24T19:07:51.332Z,6.40
2019-02-24T19:10:21.579Z,4.60
2019-02-24T19:12:50.029Z,4.40
2019-02-24T19:15:19.677Z,3.70
2019-02-24T19:17:48.062Z,6.07
2019-02-24T19:20:21.348Z,3.03
2019-02-24T19:22:49.747Z,9.20
2019-02-24T19:25:18.316Z,8.83
2019-02-24T19:27:46.844Z,5.20
2019-02-24T19:30:20.335Z,2.90
2019-02-24T19:32:48.801Z,7.03
2019-02-24T19:35:18.477Z,5.53
2019-02-24T19:37:46.981Z,4.20
2019-02-24T19:40:21.224Z,5.33
2019-02-24T19:42:49.630Z,3.20
2019-02-24T19:45:25.634Z,5.07
2019-02-24T19:47:54.081Z,9.90
2019-02-24T19:50:22.498Z,7.73
2019-02-24T19:52:50.898Z,5.93
2019-02-24T19:55:19.297Z,5.63
2019-02-24T19:57:47.682Z,7.33
2019-02-24T20:00:25.657Z,6.83
2019-02-24T20:02:54.122Z,5.13
2019-02-24T20:05:22.673Z,6.53
2019-02-24T20:07:51.153Z,6.83
2019-02-24T20:10:21.897Z,5.00
2019-02-24T20:12:50.298Z,7.40
2019-02-24T20:15:18.776Z,7.87
2019-02-24T20:17:47.175Z,8.60
2019-02-24T20:20:16.517Z,7.63
2019-02-24T20:22:45.048Z,6.63
2019-02-24T20:25:15.985Z,6.63
2019-02-24T20:27:44.384Z,6.97
2019-02-24T20:30:18.646Z,8.20
2019-02-24T20:32:47.054Z,7.70
2019-02-24T20:35:15.467Z,5.93
2019-02-24T20:37:43.885Z,5.90
2019-02-24T20:40:12.356Z,5.63
2019-02-24T20:42:40.748Z,7.97
2019-02-24T20:45:12.271Z,10.63
2019-02-24T20:47:40.670Z,5.80
2019-02-24T20:50:14.775Z,6.27
2019-02-24T20:52:43.182Z,4.37
2019-02-24T20:55:11.725Z,6.53
2019-02-24T20:57:40.114Z,5.40
2019-02-24T21:00:16.903Z,7.23
2019-02-24T21:02:45.337Z,5.70
2019-02-24T21:05:13.770Z,5.90
2019-02-24T21:07:42.181Z,5.90
2019-02-24T21:10:11.732Z,6.30
2019-02-24T21:12:40.122Z,5.37
2019-02-24T21:15:11.606Z,5.00
2019-02-24T21:17:40.007Z,4.60
2019-02-24T21:20:11.495Z,3.70
2019-02-24T21:22:39.913Z,4.50
2019-02-24T21:25:08.386Z,5.50
2019-02-24T21:27:36.770Z,5.30
2019-02-24T21:30:08.487Z,5.83
2019-02-24T21:32:36.865Z,5.17
2019-02-24T21:35:07.315Z,4.50
2019-02-24T21:37:35.711Z,6.00
2019-02-24T21:40:07.277Z,5.33
2019-02-24T21:42:35.705Z,4.80
2019-02-24T21:45:06.271Z,7.73
2019-02-24T21:47:34.673Z,5.80
2019-02-24T21:50:04.011Z,4.20
2019-02-24T21:52:32.441Z,6.60
2019-02-24T21:55:00.831Z,6.80
2019-02-24T21:57:29.233Z,5.83
2019-02-24T21:59:57.626Z,5.33
2019-02-24T22:02:26.039Z,6.10
2019-02-24T22:04:54.440Z,5.67
2019-02-24T22:07:22.921Z,6.50
2019-02-24T22:09:51.326Z,8.57
2019-02-24T22:12:19.739Z,4.63
2019-02-24T22:14:48.141Z,5.60
2019-02-24T22:17:16.541Z,4.83
2019-02-24T22:19:44.951Z,5.30
2019-02-24T22:22:13.350Z,9.73
2019-02-24T22:24:41.733Z,4.10
2019-02-24T22:27:10.153Z,8.17
2019-02-24T22:29:38.533Z,7.37
2019-02-24T22:32:06.959Z,4.70
2019-02-24T22:34:35.345Z,4.20
2019-02-24T22:37:03.761Z,3.20
2019-02-24T22:39:32.166Z,5.10
2019-02-24T22:42:00.565Z,3.97
2019-02-24T22:44:29.050Z,3.87
2019-02-24T22:46:57.441Z,3.50
2019-02-24T22:49:25.850Z,4.73
2019-02-24T22:51:54.253Z,3.77
2019-02-24T22:54:22.651Z,5.90
2019-02-24T22:56:51.053Z,4.50
2019-02-24T22:59:19.457Z,4.13
2019-02-24T23:01:49.299Z,4.93
2019-02-24T23:04:17.687Z,4.33
2019-02-24T23:06:46.112Z,6.90
2019-02-24T23:09:15.540Z,5.13
2019-02-24T23:11:44.015Z,6.27
2019-02-24T23:14:12.465Z,6.93
2019-02-24T23:16:40.883Z,5.87
2019-02-24T23:19:09.281Z,7.50
2019-02-24T23:21:37.687Z,5.43
2019-02-24T23:24:06.093Z,4.63
2019-02-24T23:26:34.500Z,7.17
2019-02-24T23:29:02.885Z,7.20
2019-02-24T23:31:31.291Z,6.93
2019-02-24T23:33:59.681Z,5.70
2019-02-24T23:36:28.092Z,5.97
2019-02-24T23:38:56.494Z,8.40
2019-02-24T23:41:24.891Z,4.97
2019-02-24T23:43:53.301Z,4.80
2019-02-24T23:46:21.703Z,5.67
2019-02-24T23:48:50.107Z,4.13
2019-02-24T23:51:18.497Z,5.17
2019-02-24T23:53:46.917Z,4.30
2019-02-24T23:56:15.320Z,3.47
2019-02-24T23:58:43.740Z,4.17
